sensor_id;sensor_type;location;lat;lon;timestamp;pressure;altitude;pressure_sealevel;temperature;humidity
76519;BME280;67029;51.054;13.798;2023-03-14T00:01:36;98296.33;;;14.34;66.64
76519;BME280;67029;51.054;13.798;2023-03-14T00:04:05;98285.23;;;14.39;66.10
76519;BME280;67029;51.054;13.798;2023-03-14T00:06:37;98269.94;;;14.27;67.02
76519;BME280;67029;51.054;13.798;2023-03-14T00:09:06;98267.38;;;14.23;67.50
76519;BME280;67029;51.054;13.798;2023-03-14T00:11:37;98251.65;;;14.16;67.11
76519;BME280;67029;51.054;13.798;2023-03-14T00:14:08;98244.38;;;14.04;67.61
76519;BME280;67029;51.054;13.798;2023-03-14T00:16:38;98226.83;;;14.05;67.72
76519;BME280;67029;51.054;13.798;2023-03-14T00:19:08;98219.53;;;14.03;68.52
76519;BME280;67029;51.054;13.798;2023-03-14T00:21:39;98208.80;;;13.93;68.40
76519;BME280;67029;51.054;13.798;2023-03-14T00:24:08;98201.00;;;14.04;67.77
76519;BME280;67029;51.054;13.798;2023-03-14T00:26:38;98200.00;;;14.08;67.85
76519;BME280;67029;51.054;13.798;2023-03-14T00:29:10;98202.22;;;14.16;67.72
76519;BME280;67029;51.054;13.798;2023-03-14T00:31:38;98204.66;;;14.20;67.01
76519;BME280;67029;51.054;13.798;2023-03-14T00:34:10;98210.70;;;14.23;66.90
76519;BME280;67029;51.054;13.798;2023-03-14T00:36:40;98208.27;;;14.21;66.98
76519;BME280;67029;51.054;13.798;2023-03-14T00:39:11;98213.79;;;14.23;66.89
76519;BME280;67029;51.054;13.798;2023-03-14T00:41:41;98225.36;;;14.24;66.75
76519;BME280;67029;51.054;13.798;2023-03-14T00:44:12;98233.72;;;14.10;66.85
76519;BME280;67029;51.054;13.798;2023-03-14T00:46:42;98229.05;;;14.02;67.21
76519;BME280;67029;51.054;13.798;2023-03-14T00:49:13;98231.33;;;14.11;67.11
76519;BME280;67029;51.054;13.798;2023-03-14T00:51:43;98225.69;;;14.23;66.85
76519;BME280;67029;51.054;13.798;2023-03-14T00:54:14;98227.32;;;14.25;66.35
76519;BME280;67029;51.054;13.798;2023-03-14T00:56:43;98231.92;;;14.18;66.52
76519;BME280;67029;51.054;13.798;2023-03-14T00:59:14;98236.59;;;14.17;66.70
76519;BME280;67029;51.054;13.798;2023-03-14T01:01:43;98240.77;;;14.16;66.29
76519;BME280;67029;51.054;13.798;2023-03-14T01:04:13;98247.52;;;14.21;66.40
76519;BME280;67029;51.054;13.798;2023-03-14T01:06:45;98254.62;;;14.20;66.25
76519;BME280;67029;51.054;13.798;2023-03-14T01:09:16;98251.59;;;14.21;66.04
76519;BME280;67029;51.054;13.798;2023-03-14T01:11:46;98243.50;;;14.16;66.10
76519;BME280;67029;51.054;13.798;2023-03-14T01:14:17;98238.23;;;14.22;65.99
76519;BME280;67029;51.054;13.798;2023-03-14T01:16:47;98246.87;;;14.15;66.04
76519;BME280;67029;51.054;13.798;2023-03-14T01:19:18;98239.09;;;14.12;66.08
76519;BME280;67029;51.054;13.798;2023-03-14T01:21:48;98221.17;;;14.10;66.20
76519;BME280;67029;51.054;13.798;2023-03-14T01:24:19;98211.83;;;14.13;66.28
76519;BME280;67029;51.054;13.798;2023-03-14T01:26:49;98215.34;;;14.24;66.08
76519;BME280;67029;51.054;13.798;2023-03-14T01:29:20;98218.25;;;14.27;65.64
76519;BME280;67029;51.054;13.798;2023-03-14T01:31:50;98220.42;;;14.33;65.51
76519;BME280;67029;51.054;13.798;2023-03-14T01:34:19;98217.02;;;14.39;65.27
76519;BME280;67029;51.054;13.798;2023-03-14T01:36:51;98228.57;;;14.45;64.94
76519;BME280;67029;51.054;13.798;2023-03-14T01:39:21;98238.30;;;14.47;64.82
76519;BME280;67029;51.054;13.798;2023-03-14T01:41:52;98231.12;;;14.44;64.74
76519;BME280;67029;51.054;13.798;2023-03-14T01:44:22;98230.25;;;14.41;64.91
76519;BME280;67029;51.054;13.798;2023-03-14T01:46:53;98230.64;;;14.29;65.24
76519;BME280;67029;51.054;13.798;2023-03-14T01:49:30;98224.62;;;14.29;65.24
76519;BME280;67029;51.054;13.798;2023-03-14T01:51:59;98214.33;;;14.21;65.47
76519;BME280;67029;51.054;13.798;2023-03-14T01:54:27;98209.84;;;14.18;65.55
76519;BME280;67029;51.054;13.798;2023-03-14T01:59:25;98211.82;;;14.31;65.12
76519;BME280;67029;51.054;13.798;2023-03-14T02:01:55;98211.56;;;14.38;64.84
76519;BME280;67029;51.054;13.798;2023-03-14T02:04:28;98211.88;;;14.43;64.67
76519;BME280;67029;51.054;13.798;2023-03-14T02:07:04;98206.61;;;14.43;64.54
76519;BME280;67029;51.054;13.798;2023-03-14T02:09:28;98202.42;;;14.40;64.62
76519;BME280;67029;51.054;13.798;2023-03-14T02:11:57;98190.30;;;14.43;64.50
76519;BME280;67029;51.054;13.798;2023-03-14T02:14:32;98199.06;;;14.50;64.31
76519;BME280;67029;51.054;13.798;2023-03-14T02:16:58;98193.27;;;14.52;64.00
76519;BME280;67029;51.054;13.798;2023-03-14T02:20:00;98205.55;;;14.46;64.20
76519;BME280;67029;51.054;13.798;2023-03-14T02:22:05;98191.59;;;14.45;64.09
76519;BME280;67029;51.054;13.798;2023-03-14T02:24:38;98193.67;;;14.39;64.23
76519;BME280;67029;51.054;13.798;2023-03-14T02:27:07;98200.72;;;14.45;63.94
76519;BME280;67029;51.054;13.798;2023-03-14T02:29:33;98196.66;;;14.49;63.73
76519;BME280;67029;51.054;13.798;2023-03-14T02:32:01;98192.98;;;14.47;63.73
76519;BME280;67029;51.054;13.798;2023-03-14T02:34:32;98184.19;;;14.49;63.53
76519;BME280;67029;51.054;13.798;2023-03-14T02:37:02;98184.42;;;14.47;63.57
76519;BME280;67029;51.054;13.798;2023-03-14T02:39:39;98186.73;;;14.49;63.44
76519;BME280;67029;51.054;13.798;2023-03-14T02:42:04;98180.73;;;14.49;63.27
76519;BME280;67029;51.054;13.798;2023-03-14T02:44:36;98187.08;;;14.49;63.16
76519;BME280;67029;51.054;13.798;2023-03-14T02:47:04;98196.88;;;14.51;63.00
76519;BME280;67029;51.054;13.798;2023-03-14T02:49:34;98196.91;;;14.53;62.84
76519;BME280;67029;51.054;13.798;2023-03-14T02:52:04;98193.88;;;14.54;62.72
76519;BME280;67029;51.054;13.798;2023-03-14T02:54:35;98196.11;;;14.57;62.50
76519;BME280;67029;51.054;13.798;2023-03-14T02:57:06;98193.18;;;14.48;62.58
76519;BME280;67029;51.054;13.798;2023-03-14T02:59:35;98197.21;;;14.49;62.28
76519;BME280;67029;51.054;13.798;2023-03-14T03:02:06;98193.98;;;14.42;62.33
76519;BME280;67029;51.054;13.798;2023-03-14T03:04:37;98197.16;;;14.35;61.93
76519;BME280;67029;51.054;13.798;2023-03-14T03:07:06;98185.53;;;14.43;60.60
76519;BME280;67029;51.054;13.798;2023-03-14T03:09:37;98183.01;;;14.46;59.96
76519;BME280;67029;51.054;13.798;2023-03-14T03:12:08;98168.29;;;14.44;60.30
76519;BME280;67029;51.054;13.798;2023-03-14T03:14:37;98158.83;;;14.47;60.52
76519;BME280;67029;51.054;13.798;2023-03-14T03:17:08;98158.05;;;14.50;60.40
76519;BME280;67029;51.054;13.798;2023-03-14T03:19:39;98156.72;;;14.57;60.39
76519;BME280;67029;51.054;13.798;2023-03-14T03:22:09;98163.30;;;14.60;60.42
76519;BME280;67029;51.054;13.798;2023-03-14T03:24:40;98166.17;;;14.65;60.20
76519;BME280;67029;51.054;13.798;2023-03-14T03:27:10;98161.08;;;14.74;59.89
76519;BME280;67029;51.054;13.798;2023-03-14T03:29:39;98166.60;;;14.82;59.33
76519;BME280;67029;51.054;13.798;2023-03-14T03:32:11;98170.18;;;14.86;58.93
76519;BME280;67029;51.054;13.798;2023-03-14T03:34:41;98166.22;;;14.85;58.75
76519;BME280;67029;51.054;13.798;2023-03-14T03:37:12;98177.77;;;14.89;58.14
76519;BME280;67029;51.054;13.798;2023-03-14T03:39:42;98173.95;;;14.91;58.74
76519;BME280;67029;51.054;13.798;2023-03-14T03:42:11;98181.90;;;14.98;58.88
76519;BME280;67029;51.054;13.798;2023-03-14T03:44:43;98180.05;;;15.03;58.82
76519;BME280;67029;51.054;13.798;2023-03-14T03:47:13;98194.62;;;15.07;58.73
76519;BME280;67029;51.054;13.798;2023-03-14T03:49:44;98177.42;;;15.10;58.57
76519;BME280;67029;51.054;13.798;2023-03-14T03:52:14;98185.04;;;15.15;58.40
76519;BME280;67029;51.054;13.798;2023-03-14T03:54:45;98175.72;;;15.10;58.19
76519;BME280;67029;51.054;13.798;2023-03-14T03:57:15;98179.94;;;15.15;57.27
76519;BME280;67029;51.054;13.798;2023-03-14T03:59:46;98178.05;;;15.18;57.39
76519;BME280;67029;51.054;13.798;2023-03-14T04:02:16;98173.14;;;15.16;57.57
76519;BME280;67029;51.054;13.798;2023-03-14T04:04:47;98169.03;;;15.15;57.78
76519;BME280;67029;51.054;13.798;2023-03-14T04:07:17;98161.61;;;15.22;57.38
76519;BME280;67029;51.054;13.798;2023-03-14T04:09:48;98157.31;;;15.22;57.31
76519;BME280;67029;51.054;13.798;2023-03-14T04:12:18;98169.56;;;15.16;57.49
76519;BME280;67029;51.054;13.798;2023-03-14T04:14:49;98170.44;;;15.17;57.57
76519;BME280;67029;51.054;13.798;2023-03-14T04:17:20;98172.11;;;15.19;57.54
76519;BME280;67029;51.054;13.798;2023-03-14T04:19:49;98171.91;;;15.23;57.39
76519;BME280;67029;51.054;13.798;2023-03-14T04:22:20;98176.81;;;15.18;57.25
76519;BME280;67029;51.054;13.798;2023-03-14T04:24:51;98174.09;;;15.18;57.33
76519;BME280;67029;51.054;13.798;2023-03-14T04:27:20;98169.67;;;15.19;57.34
76519;BME280;67029;51.054;13.798;2023-03-14T04:29:51;98173.98;;;15.22;56.95
76519;BME280;67029;51.054;13.798;2023-03-14T04:32:20;98168.20;;;15.26;56.79
76519;BME280;67029;51.054;13.798;2023-03-14T04:34:53;98172.62;;;15.26;56.78
76519;BME280;67029;51.054;13.798;2023-03-14T04:37:22;98166.72;;;15.26;56.79
76519;BME280;67029;51.054;13.798;2023-03-14T04:39:53;98152.52;;;15.24;56.21
76519;BME280;67029;51.054;13.798;2023-03-14T04:42:23;98149.02;;;15.22;56.12
76519;BME280;67029;51.054;13.798;2023-03-14T04:44:54;98156.55;;;15.05;56.20
76519;BME280;67029;51.054;13.798;2023-03-14T04:47:24;98155.09;;;14.99;55.83
76519;BME280;67029;51.054;13.798;2023-03-14T04:49:53;98153.03;;;14.97;56.28
76519;BME280;67029;51.054;13.798;2023-03-14T04:52:25;98143.67;;;14.90;55.95
76519;BME280;67029;51.054;13.798;2023-03-14T04:54:56;98149.53;;;14.89;55.56
76519;BME280;67029;51.054;13.798;2023-03-14T04:57:26;98151.17;;;14.88;55.26
76519;BME280;67029;51.054;13.798;2023-03-14T04:59:56;98144.68;;;14.84;55.51
76519;BME280;67029;51.054;13.798;2023-03-14T05:02:26;98148.72;;;14.78;55.93
76519;BME280;67029;51.054;13.798;2023-03-14T05:04:58;98148.45;;;14.86;55.60
76519;BME280;67029;51.054;13.798;2023-03-14T05:07:26;98132.66;;;14.87;55.71
76519;BME280;67029;51.054;13.798;2023-03-14T05:09:57;98134.87;;;14.89;55.66
76519;BME280;67029;51.054;13.798;2023-03-14T05:12:26;98133.00;;;14.87;55.04
76519;BME280;67029;51.054;13.798;2023-03-14T05:14:58;98126.31;;;14.80;55.27
76519;BME280;67029;51.054;13.798;2023-03-14T05:17:28;98125.16;;;14.82;54.92
76519;BME280;67029;51.054;13.798;2023-03-14T05:19:59;98141.28;;;14.79;55.37
76519;BME280;67029;51.054;13.798;2023-03-14T05:22:29;98141.16;;;14.83;55.15
76519;BME280;67029;51.054;13.798;2023-03-14T05:25:00;98142.22;;;14.85;55.03
76519;BME280;67029;51.054;13.798;2023-03-14T05:27:29;98142.53;;;14.90;54.64
76519;BME280;67029;51.054;13.798;2023-03-14T05:29:59;98144.28;;;14.92;54.75
76519;BME280;67029;51.054;13.798;2023-03-14T05:32:29;98140.39;;;14.91;54.47
76519;BME280;67029;51.054;13.798;2023-03-14T05:35:01;98145.66;;;14.94;54.12
76519;BME280;67029;51.054;13.798;2023-03-14T05:37:31;98131.32;;;14.90;54.03
76519;BME280;67029;51.054;13.798;2023-03-14T05:40:02;98126.39;;;14.87;54.43
76519;BME280;67029;51.054;13.798;2023-03-14T05:42:33;98130.72;;;14.91;54.24
76519;BME280;67029;51.054;13.798;2023-03-14T05:45:02;98132.73;;;14.93;53.94
76519;BME280;67029;51.054;13.798;2023-03-14T05:47:34;98112.77;;;14.94;53.98
76519;BME280;67029;51.054;13.798;2023-03-14T05:50:04;98120.67;;;14.98;53.93
76519;BME280;67029;51.054;13.798;2023-03-14T05:52:35;98109.50;;;15.01;53.69
76519;BME280;67029;51.054;13.798;2023-03-14T05:55:05;98110.86;;;15.05;54.01
76519;BME280;67029;51.054;13.798;2023-03-14T05:57:35;98117.20;;;15.04;53.40
76519;BME280;67029;51.054;13.798;2023-03-14T06:00:05;98109.30;;;15.00;53.75
76519;BME280;67029;51.054;13.798;2023-03-14T06:02:36;98111.30;;;15.00;53.69
76519;BME280;67029;51.054;13.798;2023-03-14T06:05:05;98108.87;;;15.00;53.65
76519;BME280;67029;51.054;13.798;2023-03-14T06:07:37;98107.20;;;15.02;53.70
76519;BME280;67029;51.054;13.798;2023-03-14T06:10:08;98099.09;;;15.03;53.88
76519;BME280;67029;51.054;13.798;2023-03-14T06:12:38;98115.14;;;15.07;53.97
76519;BME280;67029;51.054;13.798;2023-03-14T06:15:09;98106.61;;;15.15;53.68
76519;BME280;67029;51.054;13.798;2023-03-14T06:17:38;98114.69;;;15.16;53.46
76519;BME280;67029;51.054;13.798;2023-03-14T06:20:10;98124.26;;;15.09;53.84
76519;BME280;67029;51.054;13.798;2023-03-14T06:22:38;98126.09;;;15.11;54.10
76519;BME280;67029;51.054;13.798;2023-03-14T06:25:11;98136.25;;;15.17;53.86
76519;BME280;67029;51.054;13.798;2023-03-14T06:27:40;98138.95;;;15.21;53.24
76519;BME280;67029;51.054;13.798;2023-03-14T06:30:10;98138.58;;;15.22;52.99
76519;BME280;67029;51.054;13.798;2023-03-14T06:32:42;98142.67;;;15.15;53.35
76519;BME280;67029;51.054;13.798;2023-03-14T06:35:11;98146.28;;;15.17;53.49
76519;BME280;67029;51.054;13.798;2023-03-14T06:37:40;98155.09;;;15.19;53.33
76519;BME280;67029;51.054;13.798;2023-03-14T06:40:14;98162.86;;;15.22;53.50
76519;BME280;67029;51.054;13.798;2023-03-14T06:42:42;98163.25;;;15.25;53.72
76519;BME280;67029;51.054;13.798;2023-03-14T06:45:11;98174.05;;;15.29;53.37
76519;BME280;67029;51.054;13.798;2023-03-14T06:47:43;98162.91;;;15.31;53.20
76519;BME280;67029;51.054;13.798;2023-03-14T06:50:12;98165.09;;;15.33;53.00
76519;BME280;67029;51.054;13.798;2023-03-14T06:52:43;98164.97;;;15.36;53.27
76519;BME280;67029;51.054;13.798;2023-03-14T06:55:14;98165.58;;;15.36;53.21
76519;BME280;67029;51.054;13.798;2023-03-14T06:57:43;98161.39;;;15.44;52.91
76519;BME280;67029;51.054;13.798;2023-03-14T07:00:16;98169.47;;;15.48;53.14
76519;BME280;67029;51.054;13.798;2023-03-14T07:02:46;98169.86;;;15.49;53.31
76519;BME280;67029;51.054;13.798;2023-03-14T07:05:16;98166.30;;;15.53;53.28
76519;BME280;67029;51.054;13.798;2023-03-14T07:07:47;98159.05;;;15.55;53.07
76519;BME280;67029;51.054;13.798;2023-03-14T07:10:18;98155.62;;;15.60;52.64
76519;BME280;67029;51.054;13.798;2023-03-14T07:12:48;98157.59;;;15.66;52.80
76519;BME280;67029;51.054;13.798;2023-03-14T07:15:17;98158.52;;;15.65;52.53
76519;BME280;67029;51.054;13.798;2023-03-14T07:17:46;98169.20;;;15.69;52.83
76519;BME280;67029;51.054;13.798;2023-03-14T07:20:16;98174.05;;;15.77;52.91
76519;BME280;67029;51.054;13.798;2023-03-14T07:22:49;98177.91;;;15.83;52.05
76519;BME280;67029;51.054;13.798;2023-03-14T07:25:17;98177.59;;;15.81;52.34
76519;BME280;67029;51.054;13.798;2023-03-14T07:27:49;98178.46;;;15.79;52.55
76519;BME280;67029;51.054;13.798;2023-03-14T07:30:17;98179.67;;;15.84;52.65
76519;BME280;67029;51.054;13.798;2023-03-14T07:32:49;98177.31;;;15.85;52.50
76519;BME280;67029;51.054;13.798;2023-03-14T07:35:19;98177.70;;;15.75;52.31
76519;BME280;67029;51.054;13.798;2023-03-14T07:37:50;98176.97;;;15.65;52.57
76519;BME280;67029;51.054;13.798;2023-03-14T07:40:19;98173.64;;;15.67;52.81
76519;BME280;67029;51.054;13.798;2023-03-14T07:42:50;98173.41;;;15.61;52.62
76519;BME280;67029;51.054;13.798;2023-03-14T07:45:21;98177.64;;;15.68;52.75
76519;BME280;67029;51.054;13.798;2023-03-14T07:47:51;98179.62;;;15.80;52.74
76519;BME280;67029;51.054;13.798;2023-03-14T07:50:22;98179.00;;;15.93;52.64
76519;BME280;67029;51.054;13.798;2023-03-14T07:52:52;98175.02;;;16.01;52.49
76519;BME280;67029;51.054;13.798;2023-03-14T07:55:21;98172.32;;;16.08;52.29
76519;BME280;67029;51.054;13.798;2023-03-14T07:57:53;98169.89;;;16.12;52.25
76519;BME280;67029;51.054;13.798;2023-03-14T08:00:23;98175.39;;;16.12;52.03
76519;BME280;67029;51.054;13.798;2023-03-14T08:02:54;98169.53;;;16.16;51.90
76519;BME280;67029;51.054;13.798;2023-03-14T08:05:24;98165.80;;;16.21;51.73
76519;BME280;67029;51.054;13.798;2023-03-14T08:07:55;98163.25;;;16.13;51.90
76519;BME280;67029;51.054;13.798;2023-03-14T08:10:25;98164.11;;;16.18;51.97
76519;BME280;67029;51.054;13.798;2023-03-14T08:12:56;98159.66;;;16.26;51.78
76519;BME280;67029;51.054;13.798;2023-03-14T08:15:25;98157.95;;;16.31;51.62
76519;BME280;67029;51.054;13.798;2023-03-14T08:17:57;98160.38;;;16.34;51.51
76519;BME280;67029;51.054;13.798;2023-03-14T08:20:29;98161.97;;;16.29;51.30
76519;BME280;67029;51.054;13.798;2023-03-14T08:22:58;98174.05;;;16.32;51.13
76519;BME280;67029;51.054;13.798;2023-03-14T08:25:28;98168.14;;;16.31;50.13
76519;BME280;67029;51.054;13.798;2023-03-14T08:27:59;98173.72;;;16.27;50.88
76519;BME280;67029;51.054;13.798;2023-03-14T08:30:30;98168.45;;;16.25;50.77
76519;BME280;67029;51.054;13.798;2023-03-14T08:33:00;98166.43;;;16.26;50.82
76519;BME280;67029;51.054;13.798;2023-03-14T08:35:31;98162.12;;;16.32;49.53
76519;BME280;67029;51.054;13.798;2023-03-14T08:38:02;98164.58;;;16.28;50.02
76519;BME280;67029;51.054;13.798;2023-03-14T08:40:32;98158.46;;;16.24;49.36
76519;BME280;67029;51.054;13.798;2023-03-14T08:43:02;98166.84;;;16.23;50.42
76519;BME280;67029;51.054;13.798;2023-03-14T08:45:33;98161.56;;;16.28;48.91
76519;BME280;67029;51.054;13.798;2023-03-14T08:48:03;98162.43;;;16.25;49.36
76519;BME280;67029;51.054;13.798;2023-03-14T08:50:33;98156.91;;;16.37;48.92
76519;BME280;67029;51.054;13.798;2023-03-14T08:53:05;98156.55;;;16.48;47.91
76519;BME280;67029;51.054;13.798;2023-03-14T08:55:34;98152.84;;;16.52;48.09
76519;BME280;67029;51.054;13.798;2023-03-14T08:58:05;98150.72;;;16.60;48.34
76519;BME280;67029;51.054;13.798;2023-03-14T09:00:35;98155.04;;;16.70;48.23
76519;BME280;67029;51.054;13.798;2023-03-14T09:03:05;98159.27;;;16.71;47.83
76519;BME280;67029;51.054;13.798;2023-03-14T09:05:36;98164.25;;;16.74;47.85
76519;BME280;67029;51.054;13.798;2023-03-14T09:08:05;98146.42;;;16.79;47.28
76519;BME280;67029;51.054;13.798;2023-03-14T09:10:36;98151.97;;;16.74;47.52
76519;BME280;67029;51.054;13.798;2023-03-14T09:13:08;98148.54;;;16.81;48.05
76519;BME280;67029;51.054;13.798;2023-03-14T09:15:38;98139.97;;;16.90;48.06
76519;BME280;67029;51.054;13.798;2023-03-14T09:18:07;98133.78;;;17.03;47.04
76519;BME280;67029;51.054;13.798;2023-03-14T09:20:39;98150.80;;;16.97;47.26
76519;BME280;67029;51.054;13.798;2023-03-14T09:23:10;98148.19;;;17.00;47.83
76519;BME280;67029;51.054;13.798;2023-03-14T09:25:40;98156.02;;;17.09;47.74
76519;BME280;67029;51.054;13.798;2023-03-14T09:28:10;98157.33;;;17.15;47.83
76519;BME280;67029;51.054;13.798;2023-03-14T09:30:41;98159.69;;;17.20;47.23
76519;BME280;67029;51.054;13.798;2023-03-14T09:33:11;98154.58;;;17.21;47.11
76519;BME280;67029;51.054;13.798;2023-03-14T09:35:42;98153.58;;;17.23;47.14
76519;BME280;67029;51.054;13.798;2023-03-14T09:38:12;98161.31;;;17.22;47.23
76519;BME280;67029;51.054;13.798;2023-03-14T09:40:41;98161.89;;;17.24;47.74
76519;BME280;67029;51.054;13.798;2023-03-14T09:43:14;98165.00;;;17.34;47.55
76519;BME280;67029;51.054;13.798;2023-03-14T09:45:44;98169.20;;;17.35;46.89
76519;BME280;67029;51.054;13.798;2023-03-14T09:48:17;98159.55;;;17.30;47.02
76519;BME280;67029;51.054;13.798;2023-03-14T09:50:47;98163.41;;;17.30;46.55
76519;BME280;67029;51.054;13.798;2023-03-14T09:53:17;98166.25;;;17.21;47.11
76519;BME280;67029;51.054;13.798;2023-03-14T09:55:50;98160.43;;;17.19;45.85
76519;BME280;67029;51.054;13.798;2023-03-14T09:58:20;98175.67;;;17.12;46.24
76519;BME280;67029;51.054;13.798;2023-03-14T10:00:46;98169.78;;;17.03;46.46
76519;BME280;67029;51.054;13.798;2023-03-14T10:03:26;98172.34;;;17.01;46.50
76519;BME280;67029;51.054;13.798;2023-03-14T10:05:47;98167.51;;;16.98;46.42
76519;BME280;67029;51.054;13.798;2023-03-14T10:08:18;98165.61;;;16.93;46.83
76519;BME280;67029;51.054;13.798;2023-03-14T10:10:49;98168.48;;;17.00;46.78
76519;BME280;67029;51.054;13.798;2023-03-14T10:13:20;98177.23;;;16.95;45.96
76519;BME280;67029;51.054;13.798;2023-03-14T10:15:52;98177.22;;;16.90;46.91
76519;BME280;67029;51.054;13.798;2023-03-14T10:18:21;98178.41;;;16.96;46.18
76519;BME280;67029;51.054;13.798;2023-03-14T10:23:24;98186.23;;;16.92;46.46
76519;BME280;67029;51.054;13.798;2023-03-14T10:28:26;98172.55;;;16.75;45.75
76519;BME280;67029;51.054;13.798;2023-03-14T10:30:51;98168.11;;;16.71;46.45
76519;BME280;67029;51.054;13.798;2023-03-14T10:33:27;98169.56;;;16.73;46.66
76519;BME280;67029;51.054;13.798;2023-03-14T10:35:54;98169.81;;;16.75;47.04
76519;BME280;67029;51.054;13.798;2023-03-14T10:38:25;98168.80;;;16.84;46.72
76519;BME280;67029;51.054;13.798;2023-03-14T10:40:54;98165.51;;;16.90;46.98
76519;BME280;67029;51.054;13.798;2023-03-14T10:43:32;98163.48;;;16.92;46.23
76519;BME280;67029;51.054;13.798;2023-03-14T10:45:56;98163.44;;;16.93;46.13
76519;BME280;67029;51.054;13.798;2023-03-14T10:48:31;98163.52;;;16.89;46.28
76519;BME280;67029;51.054;13.798;2023-03-14T10:51:05;98158.98;;;16.87;45.49
76519;BME280;67029;51.054;13.798;2023-03-14T10:53:26;98155.25;;;16.78;46.22
76519;BME280;67029;51.054;13.798;2023-03-14T10:55:58;98161.21;;;16.81;45.79
76519;BME280;67029;51.054;13.798;2023-03-14T10:58:29;98170.14;;;16.83;45.79
76519;BME280;67029;51.054;13.798;2023-03-14T11:03:31;98166.17;;;16.83;45.83
76519;BME280;67029;51.054;13.798;2023-03-14T11:06:14;98167.12;;;16.81;46.37
76519;BME280;67029;51.054;13.798;2023-03-14T11:08:54;98169.31;;;16.84;46.66
76519;BME280;67029;51.054;13.798;2023-03-14T11:11:23;98170.39;;;16.89;46.41
76519;BME280;67029;51.054;13.798;2023-03-14T11:13:37;98169.11;;;16.93;45.78
76519;BME280;67029;51.054;13.798;2023-03-14T11:16:16;98170.80;;;16.91;46.02
76519;BME280;67029;51.054;13.798;2023-03-14T11:26:31;98159.70;;;17.01;46.08
76519;BME280;67029;51.054;13.798;2023-03-14T11:28:37;98151.83;;;16.99;45.76
76519;BME280;67029;51.054;13.798;2023-03-14T11:31:16;98152.27;;;17.03;45.60
76519;BME280;67029;51.054;13.798;2023-03-14T11:36:08;98154.62;;;16.99;45.60
76519;BME280;67029;51.054;13.798;2023-03-14T11:38:38;98150.47;;;17.05;45.91
76519;BME280;67029;51.054;13.798;2023-03-14T11:41:14;98143.09;;;17.14;45.91
76519;BME280;67029;51.054;13.798;2023-03-14T11:43:38;98141.23;;;17.30;45.76
76519;BME280;67029;51.054;13.798;2023-03-14T11:46:10;98140.70;;;17.43;45.42
76519;BME280;67029;51.054;13.798;2023-03-14T11:48:40;98137.27;;;17.55;45.44
76519;BME280;67029;51.054;13.798;2023-03-14T11:51:12;98130.84;;;17.67;45.35
76519;BME280;67029;51.054;13.798;2023-03-14T11:53:48;98129.67;;;17.74;44.60
76519;BME280;67029;51.054;13.798;2023-03-14T11:56:16;98122.73;;;17.82;45.15
76519;BME280;67029;51.054;13.798;2023-03-14T11:58:50;98116.03;;;17.83;44.85
76519;BME280;67029;51.054;13.798;2023-03-14T12:01:11;98118.71;;;17.83;44.48
76519;BME280;67029;51.054;13.798;2023-03-14T12:08:53;98107.90;;;17.70;44.72
76519;BME280;67029;51.054;13.798;2023-03-14T12:11:15;98108.98;;;17.70;44.22
76519;BME280;67029;51.054;13.798;2023-03-14T12:13:46;98111.44;;;17.69;44.61
76519;BME280;67029;51.054;13.798;2023-03-14T12:16:33;98097.06;;;17.78;44.45
76519;BME280;67029;51.054;13.798;2023-03-14T12:18:43;98104.40;;;17.90;44.53
76519;BME280;67029;51.054;13.798;2023-03-14T12:21:13;98102.95;;;17.99;44.54
76519;BME280;67029;51.054;13.798;2023-03-14T12:23:54;98096.20;;;18.15;44.60
76519;BME280;67029;51.054;13.798;2023-03-14T12:26:22;98094.73;;;18.43;43.48
76519;BME280;67029;51.054;13.798;2023-03-14T12:28:50;98089.77;;;18.59;44.46
76519;BME280;67029;51.054;13.798;2023-03-14T12:31:35;98083.78;;;18.92;43.93
76519;BME280;67029;51.054;13.798;2023-03-14T12:33:45;98087.36;;;19.20;43.56
76519;BME280;67029;51.054;13.798;2023-03-14T12:36:31;98093.19;;;19.53;43.91
76519;BME280;67029;51.054;13.798;2023-03-14T12:41:44;98089.52;;;20.05;41.67
76519;BME280;67029;51.054;13.798;2023-03-14T12:43:47;98096.25;;;20.09;40.54
76519;BME280;67029;51.054;13.798;2023-03-14T12:46:25;98092.48;;;20.09;39.35
76519;BME280;67029;51.054;13.798;2023-03-14T12:48:49;98098.84;;;19.94;40.11
76519;BME280;67029;51.054;13.798;2023-03-14T12:51:19;98096.67;;;19.84;39.83
76519;BME280;67029;51.054;13.798;2023-03-14T12:56:22;98081.09;;;19.85;40.87
76519;BME280;67029;51.054;13.798;2023-03-14T13:01:20;98067.73;;;20.00;39.92
76519;BME280;67029;51.054;13.798;2023-03-14T13:03:53;98068.20;;;20.31;40.83
76519;BME280;67029;51.054;13.798;2023-03-14T13:06:56;98069.20;;;20.73;41.18
76519;BME280;67029;51.054;13.798;2023-03-14T13:08:53;98058.49;;;21.23;39.44
76519;BME280;67029;51.054;13.798;2023-03-14T13:11:23;98051.66;;;21.67;38.49
76519;BME280;67029;51.054;13.798;2023-03-14T13:13:57;98050.91;;;22.15;36.88
76519;BME280;67029;51.054;13.798;2023-03-14T13:16:23;98043.62;;;22.50;37.20
76519;BME280;67029;51.054;13.798;2023-03-14T13:19:02;98067.81;;;23.00;36.62
76519;BME280;67029;51.054;13.798;2023-03-14T13:21:27;98063.14;;;23.33;33.68
76519;BME280;67029;51.054;13.798;2023-03-14T13:23:58;98060.16;;;23.46;33.49
76519;BME280;67029;51.054;13.798;2023-03-14T13:26:42;98058.84;;;23.58;34.20
76519;BME280;67029;51.054;13.798;2023-03-14T13:28:56;98057.55;;;23.69;34.71
76519;BME280;67029;51.054;13.798;2023-03-14T13:31:26;98049.56;;;23.96;33.21
76519;BME280;67029;51.054;13.798;2023-03-14T13:34:04;98042.55;;;24.05;32.48
76519;BME280;67029;51.054;13.798;2023-03-14T13:36:28;98044.15;;;24.18;32.85
76519;BME280;67029;51.054;13.798;2023-03-14T13:39:00;98043.31;;;24.35;32.15